LEZLLPBJ

Guest
Details From LEZL - Sevilla
To LPBJ - BEJA
Flight Number -
Tags decoded
Created
Modified
Stats Distance 107 nm / 199 km
Max Altitude 0 ft / 0 m
Waypoints 4
Social Downloads 2
Likes 0
Share VATSIM

Download

Looking for another format? Having issues loading an existing format? Contact us
Advertisement - Login to hide

Notes

Requested: LEZL SANTA UM744 LASIB LPBJ Unmatched points: UM744

Route

LEZL SANTA LASIB LPBJ

ID Type Via Altitude Latitude Longitude Leg Dist Tot Dist Heading (true) Name
O LEZL APT - 0 ft / 0 m 37.41794˚ -5.89309˚ - 0 nm - Sevilla
SANTA FIX - 0 ft / 0 m 37.66854˚ -6.29835˚ 24 nm 24 nm 308° / 308° -
LASIB FIX - 0 ft / 0 m 38.03750˚ -7.22278˚ 49 nm 73 nm 297° / 297° -
O LPBJ APT - 0 ft / 0 m 38.07878˚ -7.93118˚ 33 nm 107 nm 274° / 274° BEJA

Altitude Profile

Advertisement - Login to hide

LEZL

Details ICAO LEZL (SVQ)
Name Sevilla
Region Spain
Timezone Europe/Madrid (UTC+1.0)
Stats Elevation 111 ft / 34 m (AMSL)
Location 37.417939° -5.893093°
Runways 1
Magnetic Variation 1.296° W

METAR

LEZL 150830Z 22008KT 9999 BKN013 15/14 Q1018 NOSIG

Decode

TAF

TAF LEZL 150800Z 1509/1609 23004KT 9999 BKN018 TX17/1515Z TN06/1607Z TEMPO 1509/1512 4000 BR BKN014 TEMPO 1516/1520 4000 RA BECMG 1521/1523 CAVOK

Decode

Departure Runways

ID Width Length Bearing (true) Bearing (mag) Surface Threshold Offset Overrun Length
09 148 ft / 45 m 11,008 ft / 3,355 m 89.75° 91.05° Asphalt 0 ft / 0 m 0 ft / 0 m
27 148 ft / 45 m 11,008 ft / 3,355 m 269.77° 271.07° Asphalt 0 ft / 0 m 0 ft / 0 m

LPBJ

Details ICAO LPBJ
Name BEJA
Region Portugal
Timezone Europe/Lisbon (UTC+0.0)
Stats Elevation 636 ft / 194 m (AMSL)
Location 38.078784° -7.931182°
Runways 2
Magnetic Variation 1.947° W

METAR

LPBJ 150800Z 26009KT 8000 SCT005 BKN008 BKN016 14/13 Q1018

Decode

TAF

TAF TAF LPBJ 150501Z 1506/1606 28010KT 9999 SCT009 BKN020 TEMPO 1506/1509 2000 -DZ BR BKN004 PROB30 TEMPO 1509/1513 4000 -DZRA BR BKN009 TEMPO 1513/1517 2000 -RADZ BR BKN006 BECMG 1516/1519 35008KT FEW030

Decode

Destination Runways

ID Width Length Bearing (true) Bearing (mag) Surface Threshold Offset Overrun Length
01L 197 ft / 60 m 11,341 ft / 3,457 m 5.90° 7.85° Concrete 0 ft / 0 m 902 ft / 275 m
01R 98 ft / 30 m 9,699 ft / 2,956 m 5.91° 7.86° Concrete 0 ft / 0 m 804 ft / 245 m
19L 98 ft / 30 m 9,699 ft / 2,956 m 185.91° 187.86° Concrete 0 ft / 0 m 833 ft / 254 m
19R 197 ft / 60 m 11,341 ft / 3,457 m 185.90° 187.85° Concrete 0 ft / 0 m 902 ft / 275 m

Approach Navaids

Runway Type Ident Frequency Range Bearing (true) Bearing (mag) Slope Elevation
19R Localiser BJ 110.30 MHz 18 nm / 33 km 185.90° 187.85° - 628 ft / 191 m (AMSL)
19R Glidescope BJ 110.30 MHz 10 nm / 19 km 185.90° 187.85° 3.00° 625 ft / 191 m (AMSL)

Popular Alternatives